createdAt,value
2018-02-21T00:02:28.440Z,65.86
2018-02-21T00:04:56.989Z,66.61
2018-02-21T00:07:26.449Z,65.67
2018-02-21T00:09:54.998Z,67.03
2018-02-21T00:12:23.553Z,65.92
2018-02-21T00:14:52.158Z,66.87
2018-02-21T00:17:21.545Z,67.18
2018-02-21T00:19:50.876Z,67.46
2018-02-21T00:22:19.472Z,66.53
2018-02-21T00:24:48.020Z,65.85
2018-02-21T00:27:17.342Z,65.97
2018-02-21T00:29:46.033Z,66.57
2018-02-21T00:32:14.580Z,67.93
2018-02-21T00:34:43.133Z,66.03
2018-02-21T00:37:11.740Z,67.00
2018-02-21T00:39:40.296Z,65.92
2018-02-21T00:42:08.857Z,66.57
2018-02-21T00:44:37.463Z,66.89
2018-02-21T00:47:06.017Z,67.03
2018-02-21T00:49:34.569Z,66.69
2018-02-21T00:52:03.933Z,66.35
2018-02-21T00:54:32.488Z,66.71
2018-02-21T00:57:01.093Z,65.94
2018-02-21T00:59:29.845Z,65.94
2018-02-21T01:01:58.396Z,66.11
2018-02-21T01:04:26.950Z,65.41
2018-02-21T01:06:55.552Z,65.32
2018-02-21T01:09:24.120Z,65.45
2018-02-21T01:11:52.673Z,66.45
2018-02-21T01:14:21.544Z,66.66
2018-02-21T01:16:50.857Z,66.23
2018-02-21T01:19:19.416Z,66.26
2018-02-21T01:21:49.184Z,66.66
2018-02-21T01:24:17.739Z,67.08
2018-02-21T01:26:46.291Z,66.59
2018-02-21T01:29:15.661Z,66.37
2018-02-21T01:31:44.209Z,67.42
2018-02-21T01:34:12.762Z,67.25
2018-02-21T01:36:42.319Z,66.19
2018-02-21T01:39:10.876Z,65.89
2018-02-21T01:41:39.428Z,66.67
2018-02-21T01:44:09.105Z,67.23
2018-02-21T01:46:37.662Z,67.58
2018-02-21T01:49:06.205Z,67.63
2018-02-21T01:51:35.676Z,67.24
2018-02-21T01:54:04.241Z,67.63
2018-02-21T01:56:32.792Z,67.55
2018-02-21T01:59:01.396Z,66.70
2018-02-21T02:01:29.952Z,66.63
2018-02-21T02:03:59.280Z,66.62
2018-02-21T02:06:27.889Z,67.33
2018-02-21T02:08:56.448Z,67.43
2018-02-21T02:11:25.011Z,66.84
2018-02-21T02:13:54.762Z,66.04
2018-02-21T02:16:23.312Z,65.88
2018-02-21T02:18:51.863Z,65.51
2018-02-21T02:21:21.341Z,66.49
2018-02-21T02:23:49.888Z,66.24
2018-02-21T02:26:18.450Z,65.64
2018-02-21T02:28:48.788Z,65.62
2018-02-21T02:31:17.345Z,66.63
2018-02-21T02:33:46.668Z,66.21
2018-02-21T02:36:15.276Z,66.47
2018-02-21T02:41:51.172Z,67.46
2018-02-21T02:44:19.730Z,66.65
2018-02-21T02:46:48.279Z,67.33
2018-02-21T02:49:16.884Z,67.27
2018-02-21T02:51:45.437Z,67.61
2018-02-21T02:54:14.757Z,66.91
2018-02-21T02:56:44.128Z,66.55
2018-02-21T02:59:12.688Z,66.75
2018-02-21T03:01:42.410Z,67.43
2018-02-21T03:04:11.169Z,67.02
2018-02-21T03:06:39.724Z,66.83
2018-02-21T03:09:08.329Z,67.47
2018-02-21T03:11:37.142Z,66.79
2018-02-21T03:14:05.696Z,67.80
2018-02-21T03:16:34.256Z,67.35
2018-02-21T03:19:03.771Z,67.02
2018-02-21T03:21:32.316Z,67.46
2018-02-21T03:24:00.876Z,67.33
2018-02-21T03:26:29.477Z,68.09
2018-02-21T03:28:58.044Z,67.65
2018-02-21T03:31:26.603Z,67.12
2018-02-21T03:33:55.224Z,66.31
2018-02-21T03:36:23.770Z,66.98
2018-02-21T03:38:52.325Z,66.31
2018-02-21T03:41:21.878Z,66.58
2018-02-21T03:43:50.428Z,66.21
2018-02-21T03:46:19.020Z,66.45
2018-02-21T03:48:47.621Z,66.38
2018-02-21T03:51:16.182Z,65.66
2018-02-21T03:53:44.736Z,66.47
2018-02-21T03:56:13.694Z,66.40
2018-02-21T03:58:42.996Z,65.45
2018-02-21T04:01:12.313Z,65.39
2018-02-21T04:03:41.958Z,65.13
2018-02-21T04:06:10.511Z,65.09
2018-02-21T04:08:39.059Z,64.17
2018-02-21T04:11:08.428Z,64.63
2018-02-21T04:13:36.976Z,64.11
2018-02-21T04:16:05.543Z,64.36
2018-02-21T04:18:35.298Z,63.65
2018-02-21T04:21:03.852Z,63.90
2018-02-21T04:23:32.398Z,63.97
2018-02-21T04:26:01.800Z,64.85
2018-02-21T04:28:31.120Z,65.37
2018-02-21T04:31:00.437Z,65.12
2018-02-21T04:33:29.049Z,65.80
2018-02-21T04:35:57.606Z,65.39
2018-02-21T04:38:26.174Z,65.33
2018-02-21T04:40:55.713Z,65.56
2018-02-21T04:43:24.271Z,65.38
2018-02-21T04:45:52.855Z,65.89
2018-02-21T04:48:21.473Z,65.85
2018-02-21T04:50:50.029Z,65.20
2018-02-21T04:53:18.613Z,65.57
2018-02-21T04:55:48.148Z,64.97
2018-02-21T05:01:17.516Z,65.83
2018-02-21T05:03:46.830Z,65.31
2018-02-21T05:06:15.377Z,65.61
2018-02-21T05:08:43.981Z,65.12
2018-02-21T05:11:13.305Z,65.45
2018-02-21T05:13:41.861Z,65.02
2018-02-21T05:16:11.632Z,63.85
2018-02-21T05:18:40.188Z,63.60
2018-02-21T05:21:08.745Z,64.10
2018-02-21T05:23:38.110Z,64.47
2018-02-21T05:26:06.680Z,63.72
2018-02-21T05:28:35.235Z,64.13
2018-02-21T05:31:03.846Z,64.59
2018-02-21T05:33:32.400Z,64.03
2018-02-21T05:36:01.025Z,64.71
2018-02-21T05:38:29.707Z,64.46
2018-02-21T05:40:58.271Z,63.33
2018-02-21T05:43:26.824Z,63.25
2018-02-21T05:45:55.699Z,66.06
2018-02-21T05:48:25.020Z,66.87
2018-02-21T05:50:53.576Z,67.70
2018-02-21T05:53:22.952Z,67.25
2018-02-21T05:55:51.501Z,66.77
2018-02-21T05:58:20.081Z,66.36
2018-02-21T06:00:48.903Z,65.54
2018-02-21T06:03:17.454Z,65.76
2018-02-21T06:05:46.016Z,67.38
2018-02-21T06:08:14.728Z,66.93
2018-02-21T06:10:43.288Z,65.66
2018-02-21T06:13:11.842Z,64.83
2018-02-21T06:15:40.460Z,66.25
2018-02-21T06:18:09.016Z,65.45
2018-02-21T06:20:38.348Z,66.09
2018-02-21T06:23:07.274Z,64.94
2018-02-21T06:25:35.829Z,64.77
2018-02-21T06:28:04.406Z,63.92
2018-02-21T06:30:33.221Z,65.29
2018-02-21T06:33:01.780Z,64.11
2018-02-21T06:35:31.128Z,63.71
2018-02-21T06:38:00.713Z,62.88
2018-02-21T06:40:29.266Z,63.28
2018-02-21T06:42:57.829Z,63.00
2018-02-21T06:45:27.389Z,62.17
2018-02-21T06:47:55.952Z,61.82
2018-02-21T06:50:24.516Z,63.11
2018-02-21T06:52:53.114Z,61.92
2018-02-21T06:55:21.940Z,61.37
2018-02-21T06:57:50.498Z,60.97
2018-02-21T07:00:19.206Z,61.17
2018-02-21T07:02:47.764Z,61.55
2018-02-21T07:05:16.328Z,61.34
2018-02-21T07:07:44.952Z,62.16
2018-02-21T07:10:13.534Z,62.23
2018-02-21T07:12:42.094Z,62.23
2018-02-21T07:15:10.912Z,61.82
2018-02-21T07:17:39.497Z,62.84
2018-02-21T07:20:08.077Z,62.14
2018-02-21T07:22:36.689Z,61.63
2018-02-21T07:25:06.020Z,61.68
2018-02-21T07:27:34.592Z,62.58
2018-02-21T07:30:04.288Z,62.76
2018-02-21T07:32:33.612Z,63.28
2018-02-21T07:35:02.199Z,61.52
2018-02-21T07:37:30.822Z,62.01
2018-02-21T07:39:59.404Z,63.17
2018-02-21T07:42:27.968Z,63.82
2018-02-21T07:44:56.585Z,64.09
2018-02-21T07:47:25.157Z,62.93
2018-02-21T07:49:54.386Z,63.81
2018-02-21T07:52:23.784Z,64.14
2018-02-21T07:54:53.106Z,65.16
2018-02-21T07:57:21.707Z,65.97
2018-02-21T07:59:50.329Z,65.56
2018-02-21T08:02:19.028Z,65.78
2018-02-21T08:04:47.680Z,64.21
2018-02-21T08:07:16.683Z,63.55
2018-02-21T08:09:45.249Z,64.65
2018-02-21T08:12:13.818Z,63.66
2018-02-21T08:14:42.606Z,64.22
2018-02-21T08:17:11.167Z,64.80
2018-02-21T08:19:39.774Z,64.18
2018-02-21T08:22:09.079Z,66.76
2018-02-21T08:24:37.630Z,66.29
2018-02-21T08:27:06.193Z,65.49
2018-02-21T08:29:35.559Z,66.99
2018-02-21T08:32:04.124Z,67.27
2018-02-21T08:34:32.678Z,66.85
2018-02-21T08:37:02.217Z,66.70
2018-02-21T08:39:30.795Z,66.47
2018-02-21T08:41:59.385Z,67.19
2018-02-21T08:44:28.956Z,66.85
2018-02-21T08:46:57.508Z,67.15
2018-02-21T08:49:26.064Z,66.09
2018-02-21T08:51:55.529Z,66.56
2018-02-21T08:54:24.081Z,67.20
2018-02-21T08:56:52.640Z,67.49
2018-02-21T08:59:22.005Z,67.10
2018-02-21T09:01:50.579Z,66.97
2018-02-21T09:04:19.897Z,66.87
2018-02-21T09:06:48.499Z,66.03
2018-02-21T09:09:17.056Z,66.93
2018-02-21T09:11:46.370Z,66.37
2018-02-21T09:14:15.061Z,67.06
2018-02-21T09:16:43.620Z,66.43
2018-02-21T09:19:12.204Z,65.30
2018-02-21T09:21:41.853Z,65.15
2018-02-21T09:24:10.403Z,66.80
2018-02-21T09:26:39.724Z,65.98
2018-02-21T09:29:08.355Z,66.17
2018-02-21T09:31:37.024Z,65.76
2018-02-21T09:34:05.572Z,66.39
2018-02-21T09:36:34.169Z,65.51
2018-02-21T09:39:02.716Z,65.34
2018-02-21T09:41:32.029Z,65.45
2018-02-21T09:44:00.864Z,65.25
2018-02-21T09:46:29.417Z,66.15
2018-02-21T09:48:57.961Z,65.52
2018-02-21T09:51:27.333Z,65.26
2018-02-21T09:53:55.880Z,65.70
2018-02-21T09:56:24.429Z,65.35
2018-02-21T09:58:53.254Z,64.67
2018-02-21T10:01:21.842Z,64.67
2018-02-21T10:03:50.390Z,65.29
2018-02-21T10:06:19.000Z,64.75
2018-02-21T10:08:47.569Z,65.19
2018-02-21T10:11:16.117Z,65.03
2018-02-21T10:13:45.489Z,63.22
2018-02-21T10:16:14.041Z,63.35
2018-02-21T10:18:42.591Z,63.93
2018-02-21T10:21:11.523Z,64.25
2018-02-21T10:23:40.066Z,64.21
2018-02-21T10:26:09.376Z,64.90
2018-02-21T10:28:38.116Z,65.29
2018-02-21T10:31:06.675Z,65.02
2018-02-21T10:33:35.268Z,64.54
2018-02-21T10:36:03.893Z,65.04
2018-02-21T10:38:33.214Z,63.68
2018-02-21T10:41:01.761Z,63.88
2018-02-21T10:43:30.356Z,64.67
2018-02-21T10:45:59.664Z,64.39
2018-02-21T10:48:28.979Z,64.75
2018-02-21T10:50:57.586Z,63.81
2018-02-21T10:53:26.133Z,63.87
2018-02-21T10:55:55.448Z,63.00
2018-02-21T10:58:24.041Z,63.27
2018-02-21T11:00:58.028Z,63.16
2018-02-21T11:03:27.396Z,63.79
2018-02-21T11:05:55.945Z,64.51
2018-02-21T11:08:24.494Z,63.53
2018-02-21T11:10:53.864Z,62.70
2018-02-21T11:13:22.432Z,63.97
2018-02-21T11:15:50.981Z,65.23
2018-02-21T11:18:19.670Z,65.78
2018-02-21T11:20:48.218Z,66.08
2018-02-21T11:23:17.536Z,65.32
2018-02-21T11:25:47.084Z,65.96
2018-02-21T11:28:15.633Z,65.67
2018-02-21T11:30:44.176Z,66.97
2018-02-21T11:33:12.769Z,66.36
2018-02-21T11:35:41.324Z,67.12
2018-02-21T11:38:09.877Z,66.28
2018-02-21T11:40:38.749Z,65.47
2018-02-21T11:43:07.296Z,66.13
2018-02-21T11:45:35.849Z,64.72
2018-02-21T11:48:05.317Z,64.94
2018-02-21T11:50:33.894Z,66.47
2018-02-21T11:53:02.455Z,66.28
2018-02-21T11:55:31.058Z,66.37
2018-02-21T11:57:59.605Z,66.43
2018-02-21T12:00:28.920Z,65.94
2018-02-21T12:02:57.665Z,66.10
2018-02-21T12:05:26.223Z,66.15
2018-02-21T12:07:54.773Z,67.78
2018-02-21T12:10:23.394Z,67.27
2018-02-21T12:12:52.749Z,66.99
2018-02-21T12:15:21.284Z,66.73
2018-02-21T12:17:49.880Z,66.04
2018-02-21T12:20:18.437Z,66.27
2018-02-21T12:22:46.997Z,66.12
2018-02-21T12:25:15.981Z,65.68
2018-02-21T12:27:44.522Z,65.68
2018-02-21T12:30:13.880Z,65.83
2018-02-21T12:32:42.513Z,65.75
2018-02-21T12:35:11.836Z,65.03
2018-02-21T12:37:41.148Z,65.15
2018-02-21T12:43:10.334Z,62.20
2018-02-21T12:45:38.952Z,62.35
2018-02-21T12:48:07.500Z,61.69
2018-02-21T12:50:36.052Z,62.03
2018-02-21T12:53:04.753Z,63.14
2018-02-21T12:55:34.072Z,62.96
2018-02-21T12:58:02.623Z,62.88
2018-02-21T13:00:31.989Z,62.68
2018-02-21T13:03:00.551Z,63.21
2018-02-21T13:05:29.104Z,62.86
2018-02-21T13:07:58.661Z,62.37
2018-02-21T13:10:27.214Z,61.49
2018-02-21T13:12:55.776Z,63.07
2018-02-21T13:15:25.238Z,62.49
2018-02-21T13:17:53.826Z,63.34
2018-02-21T13:20:22.376Z,63.56
2018-02-21T13:22:51.184Z,63.63
2018-02-21T13:25:19.732Z,64.22
2018-02-21T13:27:48.285Z,64.01
2018-02-21T13:30:16.888Z,64.79
2018-02-21T13:32:46.210Z,64.37
2018-02-21T13:35:14.760Z,64.43
2018-02-21T13:37:44.141Z,63.36
2018-02-21T13:40:12.702Z,62.91
2018-02-21T13:42:41.253Z,62.89
2018-02-21T13:45:09.881Z,63.18
2018-02-21T13:47:38.474Z,62.94
2018-02-21T13:50:07.024Z,62.47
2018-02-21T13:52:35.633Z,63.46
2018-02-21T13:55:04.208Z,63.25
2018-02-21T13:57:32.785Z,62.78
2018-02-21T14:00:01.393Z,63.36
2018-02-21T14:02:30.712Z,63.13
2018-02-21T14:04:59.269Z,63.60
2018-02-21T14:07:28.964Z,65.03
2018-02-21T14:09:57.514Z,63.95
2018-02-21T14:12:26.076Z,64.15
2018-02-21T14:14:54.689Z,63.49
2018-02-21T14:17:23.245Z,63.26
2018-02-21T14:19:51.800Z,64.29
2018-02-21T14:22:21.356Z,64.05
2018-02-21T14:24:49.944Z,64.20
2018-02-21T14:27:18.492Z,64.57
2018-02-21T14:29:47.414Z,64.27
2018-02-21T14:32:15.964Z,65.55
2018-02-21T14:34:44.518Z,65.16
2018-02-21T14:37:13.901Z,65.01
2018-02-21T14:39:42.465Z,64.19
2018-02-21T14:42:11.025Z,64.03
2018-02-21T14:44:39.628Z,63.46
2018-02-21T14:47:08.184Z,65.32
2018-02-21T14:49:36.744Z,64.83
2018-02-21T14:52:06.105Z,65.12
2018-02-21T14:54:34.656Z,64.17
2018-02-21T14:57:04.089Z,64.46
2018-02-21T14:59:32.688Z,64.40
2018-02-21T15:02:01.253Z,65.29
2018-02-21T15:04:29.810Z,65.46
2018-02-21T15:06:58.405Z,65.44
2018-02-21T15:09:26.973Z,65.36
2018-02-21T15:11:55.528Z,64.41
2018-02-21T15:14:25.089Z,64.73
2018-02-21T15:16:53.640Z,65.30
2018-02-21T15:19:22.216Z,64.39
2018-02-21T15:21:50.843Z,63.62
2018-02-21T15:24:20.216Z,63.59
2018-02-21T15:26:48.778Z,63.38
2018-02-21T15:29:18.332Z,63.01
2018-02-21T15:31:46.885Z,62.47
2018-02-21T15:34:15.448Z,63.12
2018-02-21T15:36:45.206Z,63.08
2018-02-21T15:39:13.760Z,62.90
2018-02-21T15:41:42.320Z,63.78
2018-02-21T15:44:11.852Z,63.61
2018-02-21T15:46:40.445Z,62.88
2018-02-21T15:49:09.033Z,63.12
2018-02-21T15:51:37.640Z,63.24
2018-02-21T15:54:06.201Z,63.08
2018-02-21T15:56:34.778Z,63.59
2018-02-21T15:59:03.385Z,63.58
2018-02-21T16:01:31.949Z,63.17
2018-02-21T16:04:01.272Z,63.31
2018-02-21T16:06:29.896Z,63.17
2018-02-21T16:08:59.429Z,63.71
2018-02-21T16:11:27.990Z,63.08
2018-02-21T16:13:56.932Z,62.87
2018-02-21T16:16:25.526Z,63.79
2018-02-21T16:18:54.089Z,64.34
2018-02-21T16:21:22.799Z,63.05
2018-02-21T16:23:51.360Z,62.32
2018-02-21T16:26:19.912Z,62.92
2018-02-21T16:28:48.522Z,63.39
2018-02-21T16:31:17.844Z,62.92
2018-02-21T16:33:46.400Z,62.68
2018-02-21T16:36:15.937Z,63.84
2018-02-21T16:38:44.544Z,63.03
2018-02-21T16:41:13.113Z,62.45
2018-02-21T16:43:41.870Z,63.81
2018-02-21T16:46:10.460Z,63.76
2018-02-21T16:48:39.141Z,63.75
2018-02-21T16:51:07.996Z,63.07
2018-02-21T16:53:36.973Z,63.50
2018-02-21T16:56:05.936Z,62.61
2018-02-21T16:58:35.021Z,62.50
2018-02-21T17:01:03.713Z,61.96
2018-02-21T17:03:32.281Z,62.69
2018-02-21T17:06:01.017Z,62.37
2018-02-21T17:08:29.607Z,63.00
2018-02-21T17:10:58.940Z,63.49
2018-02-21T17:13:27.569Z,62.58
2018-02-21T17:15:56.137Z,63.56
2018-02-21T17:18:25.661Z,63.39
2018-02-21T17:20:54.368Z,63.82
2018-02-21T17:23:23.688Z,63.52
2018-02-21T17:25:53.008Z,63.53
2018-02-21T17:28:21.885Z,64.08
2018-02-21T17:30:50.436Z,63.56
2018-02-21T17:33:19.026Z,63.98
2018-02-21T17:35:47.637Z,64.01
2018-02-21T17:38:16.242Z,63.62
2018-02-21T17:40:50.396Z,63.39
2018-02-21T17:43:18.980Z,62.99
2018-02-21T17:45:47.532Z,63.70
2018-02-21T17:48:16.145Z,64.72
2018-02-21T17:50:44.701Z,64.19
2018-02-21T17:53:13.262Z,64.03
2018-02-21T17:55:41.857Z,63.48
2018-02-21T17:58:10.420Z,63.53
2018-02-21T18:00:38.989Z,64.23
2018-02-21T18:03:07.732Z,64.00
2018-02-21T18:05:36.289Z,64.93
2018-02-21T18:08:05.612Z,63.94
2018-02-21T18:10:34.312Z,64.01
2018-02-21T18:13:02.872Z,64.31
2018-02-21T18:15:31.425Z,64.12
2018-02-21T18:18:00.173Z,64.88
2018-02-21T18:20:28.737Z,64.06
2018-02-21T18:22:57.288Z,63.65
2018-02-21T18:25:26.957Z,64.09
2018-02-21T18:27:55.521Z,63.70
2018-02-21T18:30:24.078Z,63.96
2018-02-21T18:32:52.680Z,64.99
2018-02-21T18:35:21.232Z,65.03
2018-02-21T18:37:50.553Z,64.70
2018-02-21T18:40:19.156Z,65.13
2018-02-21T18:42:47.722Z,65.21
2018-02-21T18:45:16.281Z,64.61
2018-02-21T18:47:45.654Z,64.54
2018-02-21T18:50:14.211Z,64.67
2018-02-21T18:52:42.776Z,63.21
2018-02-21T18:55:11.521Z,63.26
2018-02-21T18:57:40.084Z,64.30
2018-02-21T19:00:08.640Z,65.87
2018-02-21T19:02:37.344Z,65.01
2018-02-21T19:05:05.888Z,65.55
2018-02-21T19:07:35.208Z,65.13
2018-02-21T19:10:04.022Z,65.03
2018-02-21T19:12:32.573Z,65.24
2018-02-21T19:15:01.128Z,65.07
2018-02-21T19:17:30.601Z,66.03
2018-02-21T19:19:59.164Z,65.46
2018-02-21T19:22:27.721Z,65.93
2018-02-21T19:24:56.421Z,65.77
2018-02-21T19:27:24.973Z,66.16
2018-02-21T19:29:54.296Z,67.24
2018-02-21T19:32:22.921Z,67.39
2018-02-21T19:34:51.477Z,67.58
2018-02-21T19:37:20.093Z,66.29
2018-02-21T19:39:48.684Z,65.97
2018-02-21T19:42:17.249Z,65.01
2018-02-21T19:44:45.810Z,65.69
2018-02-21T19:47:14.617Z,65.05
2018-02-21T19:49:43.164Z,66.35
2018-02-21T19:52:11.720Z,65.78
2018-02-21T19:54:40.329Z,66.17
2018-02-21T19:57:08.886Z,66.58
2018-02-21T19:59:38.223Z,66.86
2018-02-21T20:02:06.970Z,65.87
2018-02-21T20:04:36.296Z,65.98
2018-02-21T20:07:04.869Z,66.78
2018-02-21T20:09:34.398Z,67.25
2018-02-21T20:12:02.954Z,66.40
2018-02-21T20:14:32.283Z,66.98
2018-02-21T20:17:00.920Z,66.91
2018-02-21T20:19:29.488Z,67.63
2018-02-21T20:21:58.088Z,66.76
2018-02-21T20:24:26.853Z,66.09
2018-02-21T20:26:55.400Z,67.03
2018-02-21T20:29:23.949Z,66.01
2018-02-21T20:31:53.322Z,65.83
2018-02-21T20:34:21.881Z,66.77
2018-02-21T20:36:50.441Z,66.62
2018-02-21T20:39:19.081Z,66.00
2018-02-21T20:41:47.629Z,66.01
2018-02-21T20:44:16.173Z,65.87
2018-02-21T20:46:45.843Z,65.11
2018-02-21T20:49:14.388Z,65.06
2018-02-21T20:51:42.953Z,66.25
2018-02-21T20:54:12.330Z,66.09
2018-02-21T20:56:40.884Z,64.83
2018-02-21T20:59:09.432Z,64.46
2018-02-21T21:01:38.029Z,62.55
2018-02-21T21:04:06.593Z,62.47
2018-02-21T21:06:35.916Z,63.40
2018-02-21T21:09:04.660Z,64.04
2018-02-21T21:11:33.227Z,64.13
2018-02-21T21:14:01.789Z,64.44
2018-02-21T21:16:30.580Z,65.32
2018-02-21T21:18:59.132Z,64.23
2018-02-21T21:21:27.689Z,63.93
2018-02-21T21:23:57.054Z,64.26
2018-02-21T21:26:25.613Z,64.63
2018-02-21T21:28:54.176Z,65.81
2018-02-21T21:31:23.726Z,65.19
2018-02-21T21:33:52.299Z,66.48
2018-02-21T21:36:20.893Z,66.05
2018-02-21T21:38:50.704Z,66.30
2018-02-21T21:41:19.257Z,65.90
2018-02-21T21:43:47.822Z,65.93
2018-02-21T21:46:17.204Z,65.28
2018-02-21T21:48:46.532Z,65.86
2018-02-21T21:51:15.088Z,65.60
2018-02-21T21:53:50.097Z,65.40
2018-02-21T21:56:18.652Z,64.82
2018-02-21T21:58:47.205Z,64.96
2018-02-21T22:01:16.574Z,64.59
2018-02-21T22:03:45.138Z,64.97
2018-02-21T22:06:13.697Z,64.20
2018-02-21T22:08:42.411Z,64.16
2018-02-21T22:11:10.974Z,64.76
2018-02-21T22:13:39.551Z,65.51
2018-02-21T22:16:08.240Z,65.77
2018-02-21T22:18:36.792Z,65.86
2018-02-21T22:21:06.113Z,65.84
2018-02-21T22:23:34.941Z,66.12
2018-02-21T22:26:03.504Z,65.83
2018-02-21T22:28:32.060Z,65.93
2018-02-21T22:31:00.890Z,65.90
2018-02-21T22:33:29.455Z,66.08
2018-02-21T22:35:58.012Z,66.22
2018-02-21T22:38:26.625Z,67.16
2018-02-21T22:40:55.173Z,67.96
2018-02-21T22:43:24.492Z,67.75
2018-02-21T22:45:53.308Z,68.06
2018-02-21T22:48:21.861Z,66.55
2018-02-21T22:50:50.408Z,66.53
2018-02-21T22:53:19.986Z,66.21
2018-02-21T22:55:48.536Z,67.29
2018-02-21T22:58:17.088Z,68.12
2018-02-21T23:00:46.473Z,67.64
2018-02-21T23:03:15.033Z,67.86
2018-02-21T23:05:43.617Z,69.10
2018-02-21T23:08:12.232Z,68.86
2018-02-21T23:10:41.556Z,68.76
2018-02-21T23:13:10.106Z,68.49
2018-02-21T23:15:38.745Z,68.17
2018-02-21T23:18:07.292Z,69.29
2018-02-21T23:20:36.615Z,68.04
2018-02-21T23:23:05.250Z,68.97
2018-02-21T23:25:33.796Z,68.43
2018-02-21T23:28:02.355Z,68.76
2018-02-21T23:30:31.815Z,67.68
2018-02-21T23:33:00.365Z,68.57
2018-02-21T23:35:29.663Z,67.49
2018-02-21T23:37:58.546Z,67.15
2018-02-21T23:40:27.100Z,68.27
2018-02-21T23:42:55.656Z,69.06
2018-02-21T23:45:24.437Z,67.73
2018-02-21T23:47:52.993Z,67.60
2018-02-21T23:50:21.544Z,68.20
2018-02-21T23:52:50.925Z,67.40
2018-02-21T23:55:19.489Z,67.21
2018-02-21T23:57:48.048Z,66.79
